createdAt,value
2018-02-20T00:01:24.676Z,103.50
2018-02-20T00:03:52.284Z,97.83
2018-02-20T00:06:20.600Z,104.85
2018-02-20T00:08:48.182Z,96.83
2018-02-20T00:11:17.267Z,106.47
2018-02-20T00:13:44.879Z,99.47
2018-02-20T00:16:12.504Z,107.17
2018-02-20T00:18:40.047Z,93.30
2018-02-20T00:21:07.617Z,101.05
2018-02-20T00:23:35.492Z,99.73
2018-02-20T00:26:03.030Z,97.67
2018-02-20T00:28:31.354Z,97.47
2018-02-20T00:30:58.931Z,106.10
2018-02-20T00:33:27.241Z,95.82
2018-02-20T00:35:54.789Z,101.47
2018-02-20T00:38:22.365Z,97.60
2018-02-20T00:40:49.954Z,105.03
2018-02-20T00:43:17.490Z,96.22
2018-02-20T00:45:45.508Z,108.07
2018-02-20T00:48:19.108Z,98.47
2018-02-20T00:53:14.807Z,93.53
2018-02-20T00:55:42.347Z,104.57
2018-02-20T00:58:09.891Z,90.80
2018-02-20T01:00:37.458Z,97.30
2018-02-20T01:03:04.999Z,103.43
2018-02-20T01:05:33.311Z,99.62
2018-02-20T01:08:00.923Z,96.03
2018-02-20T01:10:28.542Z,97.55
2018-02-20T01:12:56.082Z,96.53
2018-02-20T01:15:23.650Z,90.47
2018-02-20T01:17:51.220Z,104.10
2018-02-20T01:20:18.792Z,96.55
2018-02-20T01:22:46.355Z,99.87
2018-02-20T01:25:27.736Z,96.65
2018-02-20T01:31:28.959Z,98.63
2018-02-20T01:33:56.503Z,99.28
2018-02-20T01:36:24.047Z,101.07
2018-02-20T01:38:51.617Z,97.50
2018-02-20T01:41:19.926Z,95.80
2018-02-20T01:43:48.308Z,92.57
2018-02-20T01:46:16.471Z,92.65
2018-02-20T01:48:44.340Z,93.53
2018-02-20T01:51:11.887Z,92.97
2018-02-20T01:53:40.820Z,97.88
2018-02-20T01:56:08.368Z,100.70
2018-02-20T01:58:35.956Z,106.70
2018-02-20T02:01:03.532Z,89.17
2018-02-20T02:03:31.076Z,100.83
2018-02-20T02:05:58.622Z,102.95
2018-02-20T02:08:26.188Z,99.70
2018-02-20T02:10:53.727Z,96.83
2018-02-20T02:13:21.279Z,110.07
2018-02-20T02:15:49.183Z,113.07
2018-02-20T02:18:16.723Z,90.17
2018-02-20T02:20:44.272Z,100.93
2018-02-20T02:23:11.876Z,104.13
2018-02-20T02:25:39.666Z,98.53
2018-02-20T02:28:07.975Z,98.40
2018-02-20T02:30:35.544Z,101.43
2018-02-20T02:33:03.084Z,98.93
2018-02-20T02:35:30.631Z,99.47
2018-02-20T02:37:58.696Z,114.53
2018-02-20T02:40:26.267Z,106.77
2018-02-20T02:42:54.575Z,105.03
2018-02-20T02:45:22.144Z,113.13
2018-02-20T02:47:49.712Z,106.13
2018-02-20T02:50:17.709Z,95.10
2018-02-20T02:52:45.275Z,97.97
2018-02-20T02:55:13.812Z,107.60
2018-02-20T02:57:41.355Z,96.90
2018-02-20T03:00:09.257Z,98.63
2018-02-20T03:02:44.416Z,103.60
2018-02-20T03:05:11.989Z,141.97
2018-02-20T03:07:39.532Z,160.10
2018-02-20T03:10:07.067Z,125.90
2018-02-20T03:12:34.659Z,144.65
2018-02-20T03:15:02.200Z,130.77
2018-02-20T03:17:29.751Z,116.82
2018-02-20T03:19:57.966Z,109.40
2018-02-20T03:22:25.517Z,105.67
2018-02-20T03:24:53.097Z,98.97
2018-02-20T03:27:20.663Z,98.50
2018-02-20T03:29:48.282Z,100.80
2018-02-20T03:32:17.172Z,98.33
2018-02-20T03:34:44.740Z,111.50
2018-02-20T03:37:12.284Z,104.87
2018-02-20T03:39:39.838Z,92.97
2018-02-20T03:42:07.720Z,105.77
2018-02-20T03:44:35.276Z,98.33
2018-02-20T03:47:02.820Z,97.53
2018-02-20T03:49:30.400Z,93.78
2018-02-20T03:51:58.768Z,103.40
2018-02-20T03:54:26.328Z,106.13
2018-02-20T03:56:53.960Z,102.23
2018-02-20T03:59:21.527Z,97.43
2018-02-20T04:01:49.071Z,99.00
2018-02-20T04:04:17.348Z,103.27
2018-02-20T04:06:44.886Z,101.90
2018-02-20T04:09:12.600Z,109.72
2018-02-20T04:11:40.175Z,108.50
2018-02-20T04:14:07.792Z,112.90
2018-02-20T04:16:36.519Z,107.03
2018-02-20T04:19:04.136Z,116.33
2018-02-20T04:21:31.687Z,123.40
2018-02-20T04:23:59.236Z,121.47
2018-02-20T04:26:27.415Z,107.80
2018-02-20T04:28:54.973Z,102.00
2018-02-20T04:31:22.526Z,109.25
2018-02-20T04:33:50.102Z,115.23
2018-02-20T04:36:17.652Z,101.47
2018-02-20T04:41:42.179Z,103.43
2018-02-20T04:44:09.718Z,102.47
2018-02-20T04:46:37.267Z,101.40
2018-02-20T04:49:04.880Z,98.63
2018-02-20T04:51:32.443Z,102.62
2018-02-20T04:54:00.243Z,118.67
2018-02-20T04:56:27.819Z,105.17
2018-02-20T04:58:55.364Z,100.22
2018-02-20T05:01:22.919Z,95.40
2018-02-20T05:03:50.804Z,97.53
2018-02-20T05:06:18.349Z,102.07
2018-02-20T05:08:45.895Z,104.13
2018-02-20T05:11:25.629Z,97.22
2018-02-20T05:21:58.419Z,94.70
2018-02-20T05:24:26.004Z,93.35
2018-02-20T05:26:53.551Z,102.13
2018-02-20T05:29:21.173Z,100.30
2018-02-20T05:31:48.715Z,106.80
2018-02-20T05:34:16.832Z,106.83
2018-02-20T05:36:44.461Z,103.30
2018-02-20T05:39:12.021Z,92.70
2018-02-20T05:41:40.350Z,93.40
2018-02-20T05:44:08.109Z,92.53
2018-02-20T05:46:35.657Z,89.50
2018-02-20T05:49:03.208Z,81.57
2018-02-20T05:51:30.830Z,101.83
2018-02-20T05:53:58.419Z,85.97
2018-02-20T05:56:26.348Z,88.65
2018-02-20T05:58:53.956Z,93.17
2018-02-20T06:01:21.516Z,94.63
2018-02-20T06:03:49.054Z,92.80
2018-02-20T06:06:17.420Z,102.93
2018-02-20T06:08:44.980Z,92.60
2018-02-20T06:11:12.523Z,88.62
2018-02-20T06:13:40.167Z,90.50
2018-02-20T06:16:07.709Z,84.50
2018-02-20T06:18:38.943Z,96.40
2018-02-20T06:21:06.521Z,93.07
2018-02-20T06:23:34.064Z,97.63
2018-02-20T06:26:01.609Z,100.20
2018-02-20T06:28:29.220Z,97.57
2018-02-20T06:30:56.780Z,96.97
2018-02-20T06:33:24.368Z,102.40
2018-02-20T06:35:52.723Z,85.50
2018-02-20T06:38:20.275Z,95.10
2018-02-20T06:40:47.823Z,84.77
2018-02-20T06:43:17.297Z,89.87
2018-02-20T06:45:44.843Z,85.80
2018-02-20T06:48:14.085Z,86.73
2018-02-20T06:50:43.250Z,97.67
2018-02-20T06:53:10.771Z,92.07
2018-02-20T06:55:39.102Z,86.20
2018-02-20T06:58:06.988Z,86.03
2018-02-20T07:00:34.541Z,101.65
2018-02-20T07:03:02.092Z,92.63
2018-02-20T07:05:29.688Z,93.27
2018-02-20T07:07:57.244Z,94.73
2018-02-20T07:10:24.798Z,99.43
2018-02-20T07:12:52.763Z,89.43
2018-02-20T07:15:20.310Z,85.35
2018-02-20T07:17:47.850Z,92.50
2018-02-20T07:20:17.314Z,94.80
2018-02-20T07:22:44.872Z,96.37
2018-02-20T07:25:12.441Z,91.80
2018-02-20T07:27:40.064Z,87.67
2018-02-20T07:30:07.608Z,83.73
2018-02-20T07:32:35.159Z,93.30
2018-02-20T07:35:03.186Z,88.37
2018-02-20T07:37:30.739Z,99.40
2018-02-20T07:39:58.288Z,91.03
2018-02-20T07:42:25.854Z,109.43
2018-02-20T07:44:53.395Z,98.83
2018-02-20T07:47:20.946Z,88.50
2018-02-20T07:49:48.538Z,103.38
2018-02-20T07:52:16.620Z,108.90
2018-02-20T07:54:44.164Z,93.63
2018-02-20T07:57:12.044Z,89.93
2018-02-20T07:59:39.843Z,101.10
2018-02-20T08:02:08.166Z,102.13
2018-02-20T08:04:35.764Z,91.63
2018-02-20T08:07:03.640Z,96.77
2018-02-20T08:09:31.955Z,92.47
2018-02-20T08:11:59.538Z,91.53
2018-02-20T08:14:27.130Z,98.40
2018-02-20T08:16:54.692Z,100.40
2018-02-20T08:19:22.722Z,91.23
2018-02-20T08:21:50.274Z,93.10
2018-02-20T08:24:17.828Z,99.70
2018-02-20T08:26:45.399Z,93.50
2018-02-20T08:29:24.548Z,93.32
2018-02-20T08:34:28.072Z,100.27
2018-02-20T08:36:55.908Z,90.65
2018-02-20T08:39:23.457Z,85.80
2018-02-20T08:41:51.030Z,85.30
2018-02-20T08:44:18.632Z,90.25
2018-02-20T08:46:46.219Z,82.40
2018-02-20T08:49:25.329Z,76.28
2018-02-20T08:54:43.982Z,82.40
2018-02-20T14:26:08.159Z,47.83
2018-02-20T14:28:36.498Z,53.37
2018-02-20T14:31:04.064Z,62.87
2018-02-20T14:33:31.653Z,52.87
2018-02-20T14:35:59.985Z,58.63
2018-02-20T14:38:27.544Z,56.55
2018-02-20T14:40:55.231Z,66.10
2018-02-20T14:43:24.291Z,61.33
2018-02-20T14:45:52.470Z,55.27
2018-02-20T14:48:20.092Z,59.78
2018-02-20T14:50:48.620Z,61.50
2018-02-20T14:53:16.531Z,57.87
2018-02-20T14:55:44.243Z,66.60
2018-02-20T14:58:14.395Z,58.17
2018-02-20T15:00:42.023Z,62.00
2018-02-20T15:03:09.661Z,67.77
2018-02-20T15:05:37.280Z,64.07
2018-02-20T15:08:05.387Z,62.07
2018-02-20T15:10:35.005Z,65.97
2018-02-20T15:13:03.545Z,65.03
2018-02-20T15:15:31.128Z,66.07
2018-02-20T15:17:59.515Z,72.97
2018-02-20T15:20:28.274Z,74.77
2018-02-20T15:22:56.241Z,75.20
2018-02-20T15:25:23.819Z,67.23
2018-02-20T15:27:51.600Z,82.43
2018-02-20T15:30:19.921Z,73.67
2018-02-20T15:32:47.510Z,68.40
2018-02-20T15:35:16.504Z,71.82
2018-02-20T15:37:44.045Z,69.60
2018-02-20T15:40:11.599Z,76.33
2018-02-20T15:42:39.145Z,74.80
2018-02-20T15:45:06.692Z,79.23
2018-02-20T15:47:34.255Z,72.23
2018-02-20T15:50:01.875Z,79.90
2018-02-20T15:52:29.407Z,75.97
2018-02-20T15:54:57.012Z,75.77
2018-02-20T15:57:24.543Z,80.23
2018-02-20T15:59:52.303Z,72.50
2018-02-20T16:02:19.880Z,77.28
2018-02-20T16:04:47.423Z,74.13
2018-02-20T16:07:17.202Z,81.83
2018-02-20T16:09:44.780Z,83.23
2018-02-20T16:12:12.312Z,79.05
2018-02-20T16:14:39.993Z,80.63
2018-02-20T16:17:08.047Z,82.28
2018-02-20T16:19:35.583Z,88.97
2018-02-20T16:22:04.000Z,86.03
2018-02-20T16:24:31.575Z,86.23
2018-02-20T16:26:59.130Z,82.23
2018-02-20T16:29:26.913Z,91.70
2018-02-20T16:31:54.519Z,89.50
2018-02-20T16:34:22.084Z,79.47
2018-02-20T16:36:49.652Z,77.77
2018-02-20T16:39:17.326Z,85.90
2018-02-20T16:41:44.955Z,94.57
2018-02-20T16:44:14.185Z,88.40
2018-02-20T16:46:41.755Z,88.90
2018-02-20T16:49:09.344Z,104.20
2018-02-20T16:51:36.922Z,96.93
2018-02-20T16:54:04.532Z,90.68
2018-02-20T16:56:32.087Z,89.97
2018-02-20T16:58:59.632Z,96.50
2018-02-20T17:01:27.539Z,90.90
2018-02-20T17:03:55.088Z,108.23
2018-02-20T17:06:22.626Z,106.50
2018-02-20T17:08:50.218Z,99.50
2018-02-20T17:11:17.822Z,104.87
2018-02-20T17:13:45.392Z,119.83
2018-02-20T17:16:25.954Z,120.60
2018-02-20T17:22:42.503Z,119.03
2018-02-20T17:25:10.048Z,123.73
2018-02-20T17:27:37.601Z,114.47
2018-02-20T17:30:06.219Z,117.97
2018-02-20T17:32:33.764Z,125.20
2018-02-20T17:35:01.307Z,126.93
2018-02-20T17:37:28.894Z,136.10
2018-02-20T17:39:57.243Z,129.27
2018-02-20T17:42:24.796Z,123.85
2018-02-20T17:44:53.756Z,131.00
2018-02-20T17:47:21.329Z,122.63
2018-02-20T17:49:49.045Z,128.83
2018-02-20T18:01:15.980Z,126.97
2018-02-20T18:03:43.523Z,131.17
2018-02-20T18:06:11.132Z,140.73
2018-02-20T18:08:38.699Z,139.00
2018-02-20T18:11:07.035Z,132.93
2018-02-20T18:13:35.584Z,144.18
2018-02-20T18:16:03.551Z,140.10
2018-02-20T18:18:32.946Z,136.50
2018-02-20T18:21:00.568Z,145.57
2018-02-20T18:23:28.717Z,148.15
2018-02-20T18:25:56.352Z,146.67
2018-02-20T18:28:24.652Z,160.32
2018-02-20T18:30:53.051Z,174.27
2018-02-20T18:33:20.664Z,177.63
2018-02-20T18:35:48.972Z,149.43
2018-02-20T18:38:17.759Z,162.90
2018-02-20T18:40:45.313Z,144.03
2018-02-20T18:43:31.350Z,148.62
2018-02-20T18:48:39.180Z,149.60
2018-02-20T18:51:06.731Z,159.70
2018-02-20T18:53:34.275Z,145.30
2018-02-20T18:56:03.686Z,160.77
2018-02-20T18:58:31.228Z,145.20
2018-02-20T19:00:58.774Z,155.87
2018-02-20T19:03:29.423Z,154.83
2018-02-20T19:05:57.003Z,158.10
2018-02-20T19:08:25.602Z,152.45
2018-02-20T19:10:53.274Z,158.53
2018-02-20T19:13:21.592Z,157.30
2018-02-20T19:15:49.961Z,153.57
2018-02-20T19:18:17.636Z,151.77
2018-02-20T19:20:45.180Z,138.47
2018-02-20T19:23:12.717Z,153.53
2018-02-20T19:25:41.108Z,151.53
2018-02-20T19:28:08.657Z,155.50
2018-02-20T19:30:37.143Z,154.50
2018-02-20T19:33:05.263Z,148.20
2018-02-20T19:35:32.807Z,143.18
2018-02-20T19:38:00.352Z,161.27
2018-02-20T19:40:27.925Z,149.67
2018-02-20T19:42:55.477Z,143.67
2018-02-20T19:45:23.065Z,140.40
2018-02-20T19:47:51.239Z,155.40
2018-02-20T19:50:18.778Z,128.77
2018-02-20T19:52:46.579Z,127.07
2018-02-20T19:55:19.621Z,130.30
2018-02-20T20:05:14.039Z,122.90
2018-02-20T20:07:41.597Z,131.03
2018-02-20T20:10:09.147Z,145.50
2018-02-20T20:12:37.496Z,121.77
2018-02-20T20:15:05.071Z,120.07
2018-02-20T20:17:32.615Z,121.50
2018-02-20T20:20:00.212Z,125.30
2018-02-20T20:22:27.778Z,112.27
2018-02-20T20:24:55.322Z,113.03
2018-02-20T20:27:24.052Z,114.27
2018-02-20T20:29:51.600Z,117.05
2018-02-20T20:32:19.147Z,123.00
2018-02-20T20:34:47.940Z,104.40
2018-02-20T20:37:16.527Z,111.75
2018-02-20T20:39:44.157Z,114.43
2018-02-20T20:42:12.523Z,115.87
2018-02-20T20:44:40.070Z,120.10
2018-02-20T20:47:07.616Z,129.73
2018-02-20T20:49:35.395Z,126.13
2018-02-20T20:52:02.952Z,131.95
2018-02-20T20:54:31.263Z,126.03
2018-02-20T20:56:58.836Z,119.03
2018-02-20T20:59:26.393Z,129.10
2018-02-20T21:01:53.977Z,123.83
2018-02-20T21:04:21.580Z,125.70
2018-02-20T21:06:49.128Z,129.07
2018-02-20T21:09:16.683Z,125.50
2018-02-20T21:11:45.644Z,140.63
2018-02-20T21:14:25.691Z,127.53
2018-02-20T21:24:04.043Z,128.57
2018-02-20T21:26:31.668Z,125.72
2018-02-20T21:28:59.222Z,133.47
2018-02-20T21:31:26.847Z,140.77
2018-02-20T21:33:54.404Z,130.43
2018-02-20T21:36:22.380Z,138.82
2018-02-20T21:38:49.963Z,124.37
2018-02-20T21:41:17.519Z,129.20
2018-02-20T21:43:45.838Z,127.30
2018-02-20T21:46:15.504Z,135.68
2018-02-20T21:48:43.056Z,136.83
2018-02-20T21:51:10.656Z,124.22
2018-02-20T21:53:39.798Z,117.60
2018-02-20T21:56:07.343Z,127.03
2018-02-20T21:58:34.897Z,130.50
2018-02-20T22:01:02.476Z,126.33
2018-02-20T22:03:30.036Z,116.05
2018-02-20T22:05:57.583Z,114.18
2018-02-20T22:08:25.155Z,122.73
2018-02-20T22:10:53.020Z,144.53
2018-02-20T22:13:20.580Z,121.58
2018-02-20T22:15:48.757Z,132.70
2018-02-20T22:18:17.202Z,143.77
2018-02-20T22:20:44.756Z,135.93
2018-02-20T22:23:12.340Z,137.50
2018-02-20T22:25:39.884Z,134.13
2018-02-20T22:28:07.436Z,138.83
2018-02-20T22:30:35.116Z,132.03
2018-02-20T22:33:02.675Z,130.80
2018-02-20T22:35:30.250Z,132.87
2018-02-20T22:37:58.352Z,121.60
2018-02-20T22:40:25.904Z,126.15
2018-02-20T22:42:53.458Z,134.87
2018-02-20T22:45:21.033Z,131.50
2018-02-20T22:47:48.579Z,131.83
2018-02-20T22:50:16.724Z,140.43
2018-02-20T22:52:44.315Z,126.60
2018-02-20T22:55:11.863Z,125.00
2018-02-20T22:57:40.148Z,125.37
2018-02-20T23:00:08.244Z,118.73
2018-02-20T23:02:36.559Z,111.30
2018-02-20T23:05:04.884Z,136.73
2018-02-20T23:07:32.474Z,128.48
2018-02-20T23:10:00.796Z,154.27
2018-02-20T23:12:28.344Z,135.67
2018-02-20T23:14:55.916Z,127.20
2018-02-20T23:17:23.465Z,132.23
2018-02-20T23:19:51.020Z,143.40
2018-02-20T23:22:19.268Z,147.77
2018-02-20T23:24:46.819Z,143.00
2018-02-20T23:27:25.261Z,133.60
2018-02-20T23:34:47.667Z,113.53
2018-02-20T23:37:17.268Z,108.45
2018-02-20T23:39:45.312Z,124.50
2018-02-20T23:42:14.017Z,130.70
2018-02-20T23:44:41.556Z,133.90
2018-02-20T23:47:09.120Z,130.60
2018-02-20T23:49:36.696Z,126.93
2018-02-20T23:52:04.999Z,122.07
2018-02-20T23:54:32.544Z,126.72
2018-02-20T23:57:00.119Z,125.63
2018-02-20T23:59:27.659Z,129.67
